sensor_id;sensor_type;location;lat;lon;timestamp;temperature;humidity
45491;DHT22;31237;45.586;13.782;2022-07-10T00:01:27;20.50;64.60
45491;DHT22;31237;45.586;13.782;2022-07-10T00:03:53;20.50;64.60
45491;DHT22;31237;45.586;13.782;2022-07-10T00:06:20;20.40;64.70
45491;DHT22;31237;45.586;13.782;2022-07-10T00:08:45;20.40;64.80
45491;DHT22;31237;45.586;13.782;2022-07-10T00:11:11;20.40;64.90
45491;DHT22;31237;45.586;13.782;2022-07-10T00:13:37;20.40;65.00
45491;DHT22;31237;45.586;13.782;2022-07-10T00:16:03;20.40;65.10
45491;DHT22;31237;45.586;13.782;2022-07-10T00:18:29;20.30;65.10
45491;DHT22;31237;45.586;13.782;2022-07-10T00:20:55;20.40;65.10
45491;DHT22;31237;45.586;13.782;2022-07-10T00:23:21;20.30;65.10
45491;DHT22;31237;45.586;13.782;2022-07-10T00:25:47;20.30;65.20
45491;DHT22;31237;45.586;13.782;2022-07-10T00:28:13;20.30;65.20
45491;DHT22;31237;45.586;13.782;2022-07-10T00:30:38;20.30;65.20
45491;DHT22;31237;45.586;13.782;2022-07-10T00:33:04;20.30;65.30
45491;DHT22;31237;45.586;13.782;2022-07-10T00:35:30;20.30;65.30
45491;DHT22;31237;45.586;13.782;2022-07-10T00:37:56;20.30;65.30
45491;DHT22;31237;45.586;13.782;2022-07-10T00:40:22;20.20;65.20
45491;DHT22;31237;45.586;13.782;2022-07-10T00:42:48;20.20;65.30
45491;DHT22;31237;45.586;13.782;2022-07-10T00:45:13;20.20;65.40
45491;DHT22;31237;45.586;13.782;2022-07-10T00:47:39;20.20;65.50
45491;DHT22;31237;45.586;13.782;2022-07-10T00:50:06;20.20;65.50
45491;DHT22;31237;45.586;13.782;2022-07-10T00:52:32;20.20;65.50
45491;DHT22;31237;45.586;13.782;2022-07-10T00:55:01;20.20;65.60
45491;DHT22;31237;45.586;13.782;2022-07-10T00:57:27;20.20;65.60
45491;DHT22;31237;45.586;13.782;2022-07-10T00:59:54;20.20;65.70
45491;DHT22;31237;45.586;13.782;2022-07-10T01:02:19;20.20;65.80
45491;DHT22;31237;45.586;13.782;2022-07-10T01:04:45;20.20;66.00
45491;DHT22;31237;45.586;13.782;2022-07-10T01:07:11;20.20;66.10
45491;DHT22;31237;45.586;13.782;2022-07-10T01:09:37;20.10;66.10
45491;DHT22;31237;45.586;13.782;2022-07-10T01:12:04;20.10;66.20
45491;DHT22;31237;45.586;13.782;2022-07-10T01:14:30;20.20;66.40
45491;DHT22;31237;45.586;13.782;2022-07-10T01:16:58;20.10;66.40
45491;DHT22;31237;45.586;13.782;2022-07-10T01:19:23;20.10;66.50
45491;DHT22;31237;45.586;13.782;2022-07-10T01:21:49;20.10;66.70
45491;DHT22;31237;45.586;13.782;2022-07-10T01:24:15;20.10;66.80
45491;DHT22;31237;45.586;13.782;2022-07-10T01:26:41;20.10;67.00
45491;DHT22;31237;45.586;13.782;2022-07-10T01:29:09;20.10;67.10
45491;DHT22;31237;45.586;13.782;2022-07-10T01:31:35;20.10;67.20
45491;DHT22;31237;45.586;13.782;2022-07-10T01:34:02;20.10;67.30
45491;DHT22;31237;45.586;13.782;2022-07-10T01:36:30;20.10;67.40
45491;DHT22;31237;45.586;13.782;2022-07-10T01:38:57;20.10;67.50
45491;DHT22;31237;45.586;13.782;2022-07-10T01:41:24;20.10;67.60
45491;DHT22;31237;45.586;13.782;2022-07-10T01:43:50;20.20;67.80
45491;DHT22;31237;45.586;13.782;2022-07-10T01:46:16;20.20;67.90
45491;DHT22;31237;45.586;13.782;2022-07-10T01:48:42;20.20;68.00
45491;DHT22;31237;45.586;13.782;2022-07-10T01:51:09;20.20;68.10
45491;DHT22;31237;45.586;13.782;2022-07-10T01:53:36;20.20;68.10
45491;DHT22;31237;45.586;13.782;2022-07-10T01:56:04;20.30;68.90
45491;DHT22;31237;45.586;13.782;2022-07-10T01:58:31;20.30;68.30
45491;DHT22;31237;45.586;13.782;2022-07-10T02:01:18;20.30;68.40
45491;DHT22;31237;45.586;13.782;2022-07-10T02:03:44;20.30;68.40
45491;DHT22;31237;45.586;13.782;2022-07-10T02:06:28;20.40;68.50
45491;DHT22;31237;45.586;13.782;2022-07-10T02:08:54;20.40;68.50
45491;DHT22;31237;45.586;13.782;2022-07-10T02:11:19;20.40;68.50
45491;DHT22;31237;45.586;13.782;2022-07-10T02:13:45;20.40;68.50
45491;DHT22;31237;45.586;13.782;2022-07-10T02:16:11;20.40;68.50
45491;DHT22;31237;45.586;13.782;2022-07-10T02:18:37;20.50;68.60
45491;DHT22;31237;45.586;13.782;2022-07-10T02:21:04;20.50;68.60
45491;DHT22;31237;45.586;13.782;2022-07-10T02:23:30;20.50;68.70
45491;DHT22;31237;45.586;13.782;2022-07-10T02:25:56;20.50;68.70
45491;DHT22;31237;45.586;13.782;2022-07-10T02:28:22;20.60;68.80
45491;DHT22;31237;45.586;13.782;2022-07-10T02:30:47;20.60;68.80
45491;DHT22;31237;45.586;13.782;2022-07-10T02:33:13;20.60;68.90
45491;DHT22;31237;45.586;13.782;2022-07-10T02:35:39;20.60;68.80
45491;DHT22;31237;45.586;13.782;2022-07-10T02:38:05;20.60;68.80
45491;DHT22;31237;45.586;13.782;2022-07-10T02:40:30;20.60;68.90
45491;DHT22;31237;45.586;13.782;2022-07-10T02:42:56;20.70;69.00
45491;DHT22;31237;45.586;13.782;2022-07-10T02:45:21;20.70;69.10
45491;DHT22;31237;45.586;13.782;2022-07-10T02:47:47;20.70;69.10
45491;DHT22;31237;45.586;13.782;2022-07-10T02:50:13;20.70;69.20
45491;DHT22;31237;45.586;13.782;2022-07-10T02:52:39;20.70;69.20
45491;DHT22;31237;45.586;13.782;2022-07-10T02:55:05;20.70;69.30
45491;DHT22;31237;45.586;13.782;2022-07-10T02:57:30;20.70;69.40
45491;DHT22;31237;45.586;13.782;2022-07-10T02:59:56;20.70;69.30
45491;DHT22;31237;45.586;13.782;2022-07-10T03:02:22;20.80;69.40
45491;DHT22;31237;45.586;13.782;2022-07-10T03:04:47;20.80;69.40
45491;DHT22;31237;45.586;13.782;2022-07-10T03:07:13;20.80;69.40
45491;DHT22;31237;45.586;13.782;2022-07-10T03:09:39;20.80;69.40
45491;DHT22;31237;45.586;13.782;2022-07-10T03:12:05;20.80;69.40
45491;DHT22;31237;45.586;13.782;2022-07-10T03:14:31;20.90;69.50
45491;DHT22;31237;45.586;13.782;2022-07-10T03:16:56;20.90;69.50
45491;DHT22;31237;45.586;13.782;2022-07-10T03:19:22;20.90;69.50
45491;DHT22;31237;45.586;13.782;2022-07-10T03:21:48;20.90;69.60
45491;DHT22;31237;45.586;13.782;2022-07-10T03:24:13;20.90;69.60
45491;DHT22;31237;45.586;13.782;2022-07-10T03:26:40;20.90;69.60
45491;DHT22;31237;45.586;13.782;2022-07-10T03:29:06;20.90;69.70
45491;DHT22;31237;45.586;13.782;2022-07-10T03:31:31;20.90;69.80
45491;DHT22;31237;45.586;13.782;2022-07-10T03:33:57;20.90;69.90
45491;DHT22;31237;45.586;13.782;2022-07-10T03:36:23;20.80;69.80
45491;DHT22;31237;45.586;13.782;2022-07-10T03:38:48;20.80;69.80
45491;DHT22;31237;45.586;13.782;2022-07-10T03:41:14;20.80;69.90
45491;DHT22;31237;45.586;13.782;2022-07-10T03:43:40;20.70;69.90
45491;DHT22;31237;45.586;13.782;2022-07-10T03:46:06;20.70;70.00
45491;DHT22;31237;45.586;13.782;2022-07-10T03:48:32;20.70;70.00
45491;DHT22;31237;45.586;13.782;2022-07-10T03:50:58;20.70;69.90
45491;DHT22;31237;45.586;13.782;2022-07-10T03:53:24;20.70;69.80
45491;DHT22;31237;45.586;13.782;2022-07-10T03:55:49;20.60;69.60
45491;DHT22;31237;45.586;13.782;2022-07-10T03:58:15;20.60;69.50
45491;DHT22;31237;45.586;13.782;2022-07-10T04:00:41;20.60;69.40
45491;DHT22;31237;45.586;13.782;2022-07-10T04:03:08;20.50;69.30
45491;DHT22;31237;45.586;13.782;2022-07-10T04:05:34;20.50;69.30
45491;DHT22;31237;45.586;13.782;2022-07-10T04:08:01;20.50;69.30
45491;DHT22;31237;45.586;13.782;2022-07-10T04:10:29;20.50;69.30
45491;DHT22;31237;45.586;13.782;2022-07-10T04:12:55;20.50;69.20
45491;DHT22;31237;45.586;13.782;2022-07-10T04:15:21;20.60;69.30
45491;DHT22;31237;45.586;13.782;2022-07-10T04:17:48;20.60;69.30
45491;DHT22;31237;45.586;13.782;2022-07-10T04:20:15;20.60;69.30
45491;DHT22;31237;45.586;13.782;2022-07-10T04:22:41;20.60;69.20
45491;DHT22;31237;45.586;13.782;2022-07-10T04:25:07;20.70;69.10
45491;DHT22;31237;45.586;13.782;2022-07-10T04:27:33;20.70;69.00
45491;DHT22;31237;45.586;13.782;2022-07-10T04:29:59;20.80;68.90
45491;DHT22;31237;45.586;13.782;2022-07-10T04:32:25;20.90;68.80
45491;DHT22;31237;45.586;13.782;2022-07-10T04:34:51;20.90;68.60
45491;DHT22;31237;45.586;13.782;2022-07-10T04:37:17;21.00;68.50
45491;DHT22;31237;45.586;13.782;2022-07-10T04:39:42;21.00;68.50
45491;DHT22;31237;45.586;13.782;2022-07-10T04:42:08;21.10;68.40
45491;DHT22;31237;45.586;13.782;2022-07-10T04:44:35;21.10;68.40
45491;DHT22;31237;45.586;13.782;2022-07-10T04:47:02;21.10;68.40
45491;DHT22;31237;45.586;13.782;2022-07-10T04:49:28;21.20;68.40
45491;DHT22;31237;45.586;13.782;2022-07-10T04:51:54;21.20;68.30
45491;DHT22;31237;45.586;13.782;2022-07-10T04:54:22;21.20;68.30
45491;DHT22;31237;45.586;13.782;2022-07-10T04:56:48;21.30;68.30
45491;DHT22;31237;45.586;13.782;2022-07-10T04:59:14;21.40;68.40
45491;DHT22;31237;45.586;13.782;2022-07-10T05:01:40;21.40;68.30
45491;DHT22;31237;45.586;13.782;2022-07-10T05:04:05;21.40;68.30
45491;DHT22;31237;45.586;13.782;2022-07-10T05:06:31;21.40;68.30
45491;DHT22;31237;45.586;13.782;2022-07-10T05:08:57;21.50;68.30
45491;DHT22;31237;45.586;13.782;2022-07-10T05:11:23;21.60;68.30
45491;DHT22;31237;45.586;13.782;2022-07-10T05:13:49;21.70;68.20
45491;DHT22;31237;45.586;13.782;2022-07-10T05:16:15;21.80;68.00
45491;DHT22;31237;45.586;13.782;2022-07-10T05:18:41;21.90;67.90
45491;DHT22;31237;45.586;13.782;2022-07-10T05:21:08;22.00;67.60
45491;DHT22;31237;45.586;13.782;2022-07-10T05:23:34;22.10;67.40
45491;DHT22;31237;45.586;13.782;2022-07-10T05:26:00;22.10;67.30
45491;DHT22;31237;45.586;13.782;2022-07-10T05:28:26;22.10;67.20
45491;DHT22;31237;45.586;13.782;2022-07-10T05:30:52;22.20;67.10
45491;DHT22;31237;45.586;13.782;2022-07-10T05:33:18;22.20;67.10
45491;DHT22;31237;45.586;13.782;2022-07-10T05:35:44;22.20;67.00
45491;DHT22;31237;45.586;13.782;2022-07-10T05:38:10;22.20;67.00
45491;DHT22;31237;45.586;13.782;2022-07-10T05:40:36;22.30;66.90
45491;DHT22;31237;45.586;13.782;2022-07-10T05:43:01;22.40;66.90
45491;DHT22;31237;45.586;13.782;2022-07-10T05:45:27;22.40;66.70
45491;DHT22;31237;45.586;13.782;2022-07-10T05:47:53;22.50;66.70
45491;DHT22;31237;45.586;13.782;2022-07-10T05:50:19;22.50;66.60
45491;DHT22;31237;45.586;13.782;2022-07-10T05:52:45;22.60;66.50
45491;DHT22;31237;45.586;13.782;2022-07-10T05:55:11;22.70;66.40
45491;DHT22;31237;45.586;13.782;2022-07-10T05:57:37;22.80;66.90
45491;DHT22;31237;45.586;13.782;2022-07-10T06:00:07;22.90;66.60
45491;DHT22;31237;45.586;13.782;2022-07-10T06:02:33;23.00;65.60
45491;DHT22;31237;45.586;13.782;2022-07-10T06:04:59;23.10;65.20
45491;DHT22;31237;45.586;13.782;2022-07-10T06:07:25;23.30;64.90
45491;DHT22;31237;45.586;13.782;2022-07-10T06:09:51;23.40;64.40
45491;DHT22;31237;45.586;13.782;2022-07-10T06:12:17;23.60;64.20
45491;DHT22;31237;45.586;13.782;2022-07-10T06:14:43;23.80;62.60
45491;DHT22;31237;45.586;13.782;2022-07-10T06:17:08;23.90;61.70
45491;DHT22;31237;45.586;13.782;2022-07-10T06:19:34;24.00;61.60
45491;DHT22;31237;45.586;13.782;2022-07-10T06:22:00;24.10;61.10
45491;DHT22;31237;45.586;13.782;2022-07-10T06:24:44;24.20;60.60
45491;DHT22;31237;45.586;13.782;2022-07-10T06:27:10;24.40;59.80
45491;DHT22;31237;45.586;13.782;2022-07-10T06:29:37;24.50;59.50
45491;DHT22;31237;45.586;13.782;2022-07-10T06:32:03;24.60;59.10
45491;DHT22;31237;45.586;13.782;2022-07-10T06:34:29;24.70;58.80
45491;DHT22;31237;45.586;13.782;2022-07-10T06:36:55;24.70;58.60
45491;DHT22;31237;45.586;13.782;2022-07-10T06:39:21;24.90;58.40
45491;DHT22;31237;45.586;13.782;2022-07-10T06:41:47;25.00;57.50
45491;DHT22;31237;45.586;13.782;2022-07-10T06:44:12;25.00;57.40
45491;DHT22;31237;45.586;13.782;2022-07-10T06:46:38;25.10;57.30
45491;DHT22;31237;45.586;13.782;2022-07-10T06:49:04;25.20;57.00
45491;DHT22;31237;45.586;13.782;2022-07-10T06:51:30;25.20;57.00
45491;DHT22;31237;45.586;13.782;2022-07-10T06:53:57;25.30;57.00
45491;DHT22;31237;45.586;13.782;2022-07-10T06:56:23;25.30;56.70
45491;DHT22;31237;45.586;13.782;2022-07-10T06:58:48;25.50;57.10
45491;DHT22;31237;45.586;13.782;2022-07-10T07:01:14;25.60;57.30
45491;DHT22;31237;45.586;13.782;2022-07-10T07:03:40;25.70;57.20
45491;DHT22;31237;45.586;13.782;2022-07-10T07:06:06;25.80;57.30
45491;DHT22;31237;45.586;13.782;2022-07-10T07:08:32;25.90;57.60
45491;DHT22;31237;45.586;13.782;2022-07-10T07:10:57;25.80;57.80
45491;DHT22;31237;45.586;13.782;2022-07-10T07:13:23;25.90;58.30
45491;DHT22;31237;45.586;13.782;2022-07-10T07:15:49;26.00;58.30
45491;DHT22;31237;45.586;13.782;2022-07-10T07:18:25;25.90;58.40
45491;DHT22;31237;45.586;13.782;2022-07-10T07:21:01;25.80;59.10
45491;DHT22;31237;45.586;13.782;2022-07-10T07:23:45;25.70;59.60
45491;DHT22;31237;45.586;13.782;2022-07-10T07:26:11;25.60;59.80
45491;DHT22;31237;45.586;13.782;2022-07-10T07:28:37;25.50;59.90
45491;DHT22;31237;45.586;13.782;2022-07-10T07:31:03;25.40;60.20
45491;DHT22;31237;45.586;13.782;2022-07-10T07:33:28;25.40;60.40
45491;DHT22;31237;45.586;13.782;2022-07-10T07:35:54;25.40;60.50
45491;DHT22;31237;45.586;13.782;2022-07-10T07:38:20;25.40;60.40
45491;DHT22;31237;45.586;13.782;2022-07-10T07:40:46;25.40;60.40
45491;DHT22;31237;45.586;13.782;2022-07-10T07:43:12;25.40;60.60
45491;DHT22;31237;45.586;13.782;2022-07-10T07:45:37;25.30;60.80
45491;DHT22;31237;45.586;13.782;2022-07-10T07:48:03;25.20;61.00
45491;DHT22;31237;45.586;13.782;2022-07-10T07:50:34;25.20;61.20
45491;DHT22;31237;45.586;13.782;2022-07-10T07:53:01;25.20;61.50
45491;DHT22;31237;45.586;13.782;2022-07-10T07:55:28;25.40;61.50
45491;DHT22;31237;45.586;13.782;2022-07-10T07:57:55;25.50;61.10
45491;DHT22;31237;45.586;13.782;2022-07-10T08:00:22;25.70;60.50
45491;DHT22;31237;45.586;13.782;2022-07-10T08:02:50;25.80;60.50
45491;DHT22;31237;45.586;13.782;2022-07-10T08:05:16;25.90;60.30
45491;DHT22;31237;45.586;13.782;2022-07-10T08:07:45;26.10;60.10
45491;DHT22;31237;45.586;13.782;2022-07-10T08:10:16;26.30;59.80
45491;DHT22;31237;45.586;13.782;2022-07-10T08:12:43;26.50;59.10
45491;DHT22;31237;45.586;13.782;2022-07-10T08:15:12;26.70;57.50
45491;DHT22;31237;45.586;13.782;2022-07-10T08:17:40;26.80;55.10
45491;DHT22;31237;45.586;13.782;2022-07-10T08:20:07;26.90;54.00
45491;DHT22;31237;45.586;13.782;2022-07-10T08:22:34;27.00;53.40
45491;DHT22;31237;45.586;13.782;2022-07-10T08:24:59;27.10;53.40
45491;DHT22;31237;45.586;13.782;2022-07-10T08:27:25;27.30;54.80
45491;DHT22;31237;45.586;13.782;2022-07-10T08:29:51;27.40;54.40
45491;DHT22;31237;45.586;13.782;2022-07-10T08:32:17;27.60;53.80
45491;DHT22;31237;45.586;13.782;2022-07-10T08:34:43;27.60;53.80
45491;DHT22;31237;45.586;13.782;2022-07-10T08:37:09;27.60;52.30
45491;DHT22;31237;45.586;13.782;2022-07-10T08:39:36;27.70;51.80
45491;DHT22;31237;45.586;13.782;2022-07-10T08:42:04;27.70;51.30
45491;DHT22;31237;45.586;13.782;2022-07-10T08:44:32;27.70;49.50
45491;DHT22;31237;45.586;13.782;2022-07-10T08:46:58;27.70;49.00
45491;DHT22;31237;45.586;13.782;2022-07-10T08:49:27;27.60;49.60
45491;DHT22;31237;45.586;13.782;2022-07-10T08:52:04;27.60;50.40
45491;DHT22;31237;45.586;13.782;2022-07-10T08:54:32;27.50;49.70
45491;DHT22;31237;45.586;13.782;2022-07-10T08:57:00;27.50;50.80
45491;DHT22;31237;45.586;13.782;2022-07-10T08:59:27;27.60;51.40
45491;DHT22;31237;45.586;13.782;2022-07-10T09:01:53;27.60;51.30
45491;DHT22;31237;45.586;13.782;2022-07-10T09:04:21;27.60;50.20
45491;DHT22;31237;45.586;13.782;2022-07-10T09:06:47;27.70;48.70
45491;DHT22;31237;45.586;13.782;2022-07-10T09:09:13;27.70;49.50
45491;DHT22;31237;45.586;13.782;2022-07-10T09:11:40;27.80;49.80
45491;DHT22;31237;45.586;13.782;2022-07-10T09:14:09;27.90;50.00
45491;DHT22;31237;45.586;13.782;2022-07-10T09:16:38;27.90;50.30
45491;DHT22;31237;45.586;13.782;2022-07-10T09:21:47;28.00;49.80
45491;DHT22;31237;45.586;13.782;2022-07-10T09:24:14;28.00;46.30
45491;DHT22;31237;45.586;13.782;2022-07-10T09:26:43;28.00;45.10
45491;DHT22;31237;45.586;13.782;2022-07-10T09:29:12;28.00;43.90
45491;DHT22;31237;45.586;13.782;2022-07-10T09:31:52;28.00;43.30
45491;DHT22;31237;45.586;13.782;2022-07-10T09:37:26;28.00;41.50
45491;DHT22;31237;45.586;13.782;2022-07-10T09:40:05;28.00;39.30
45491;DHT22;31237;45.586;13.782;2022-07-10T09:42:38;28.00;38.90
45491;DHT22;31237;45.586;13.782;2022-07-10T09:47:57;28.00;38.60
45491;DHT22;31237;45.586;13.782;2022-07-10T09:50:30;28.10;39.00
45491;DHT22;31237;45.586;13.782;2022-07-10T09:52:58;28.20;37.30
45491;DHT22;31237;45.586;13.782;2022-07-10T09:55:27;28.20;36.70
45491;DHT22;31237;45.586;13.782;2022-07-10T09:58:00;28.20;37.50
45491;DHT22;31237;45.586;13.782;2022-07-10T10:00:33;28.10;38.10
45491;DHT22;31237;45.586;13.782;2022-07-10T10:03:04;28.10;37.90
45491;DHT22;31237;45.586;13.782;2022-07-10T10:08:09;28.20;39.20
45491;DHT22;31237;45.586;13.782;2022-07-10T10:10:40;28.30;38.50
45491;DHT22;31237;45.586;13.782;2022-07-10T10:13:10;28.40;38.50
45491;DHT22;31237;45.586;13.782;2022-07-10T10:15:37;28.60;37.70
45491;DHT22;31237;45.586;13.782;2022-07-10T10:18:03;28.70;36.30
45491;DHT22;31237;45.586;13.782;2022-07-10T10:20:32;28.70;36.40
45491;DHT22;31237;45.586;13.782;2022-07-10T10:23:05;28.90;35.80
45491;DHT22;31237;45.586;13.782;2022-07-10T10:25:33;29.00;34.90
45491;DHT22;31237;45.586;13.782;2022-07-10T10:28:01;28.90;34.70
45491;DHT22;31237;45.586;13.782;2022-07-10T10:30:29;28.80;33.90
45491;DHT22;31237;45.586;13.782;2022-07-10T10:32:55;28.70;33.90
45491;DHT22;31237;45.586;13.782;2022-07-10T10:35:46;28.60;34.30
45491;DHT22;31237;45.586;13.782;2022-07-10T10:38:15;28.50;34.10
45491;DHT22;31237;45.586;13.782;2022-07-10T10:40:41;28.40;33.10
45491;DHT22;31237;45.586;13.782;2022-07-10T10:43:23;28.50;33.50
45491;DHT22;31237;45.586;13.782;2022-07-10T10:45:52;28.50;34.00
45491;DHT22;31237;45.586;13.782;2022-07-10T10:48:18;28.60;34.40
45491;DHT22;31237;45.586;13.782;2022-07-10T10:50:51;28.70;34.80
45491;DHT22;31237;45.586;13.782;2022-07-10T10:53:27;28.80;33.30
45491;DHT22;31237;45.586;13.782;2022-07-10T10:58:27;28.80;32.80
45491;DHT22;31237;45.586;13.782;2022-07-10T11:01:03;28.80;32.80
45491;DHT22;31237;45.586;13.782;2022-07-10T11:03:29;28.80;32.40
45491;DHT22;31237;45.586;13.782;2022-07-10T11:05:55;28.70;32.80
45491;DHT22;31237;45.586;13.782;2022-07-10T11:08:41;28.90;33.60
45491;DHT22;31237;45.586;13.782;2022-07-10T11:14:00;28.90;33.30
45491;DHT22;31237;45.586;13.782;2022-07-10T11:16:25;28.90;34.10
45491;DHT22;31237;45.586;13.782;2022-07-10T11:18:54;28.90;35.40
45491;DHT22;31237;45.586;13.782;2022-07-10T11:21:28;28.90;35.70
45491;DHT22;31237;45.586;13.782;2022-07-10T11:24:49;29.00;36.20
45491;DHT22;31237;45.586;13.782;2022-07-10T11:30:20;29.00;37.40
45491;DHT22;31237;45.586;13.782;2022-07-10T11:32:45;29.20;37.30
45491;DHT22;31237;45.586;13.782;2022-07-10T11:35:12;29.40;37.00
45491;DHT22;31237;45.586;13.782;2022-07-10T11:37:51;29.60;36.60
45491;DHT22;31237;45.586;13.782;2022-07-10T11:40:18;29.80;36.00
45491;DHT22;31237;45.586;13.782;2022-07-10T11:42:55;29.90;35.60
45491;DHT22;31237;45.586;13.782;2022-07-10T11:45:29;29.90;34.30
45491;DHT22;31237;45.586;13.782;2022-07-10T11:47:55;29.80;33.30
45491;DHT22;31237;45.586;13.782;2022-07-10T11:50:22;29.60;33.30
45491;DHT22;31237;45.586;13.782;2022-07-10T11:52:48;29.40;32.80
45491;DHT22;31237;45.586;13.782;2022-07-10T11:55:16;29.30;33.30
45491;DHT22;31237;45.586;13.782;2022-07-10T11:57:43;29.20;33.90
45491;DHT22;31237;45.586;13.782;2022-07-10T12:00:40;29.20;33.70
45491;DHT22;31237;45.586;13.782;2022-07-10T12:03:21;29.30;34.10
45491;DHT22;31237;45.586;13.782;2022-07-10T12:05:47;29.30;33.80
45491;DHT22;31237;45.586;13.782;2022-07-10T12:08:16;29.20;33.40
45491;DHT22;31237;45.586;13.782;2022-07-10T12:10:42;29.20;33.70
45491;DHT22;31237;45.586;13.782;2022-07-10T12:13:13;29.10;34.60
45491;DHT22;31237;45.586;13.782;2022-07-10T12:15:41;29.00;34.40
45491;DHT22;31237;45.586;13.782;2022-07-10T12:18:09;29.00;34.80
45491;DHT22;31237;45.586;13.782;2022-07-10T12:20:40;28.90;35.10
45491;DHT22;31237;45.586;13.782;2022-07-10T12:23:11;28.80;35.20
45491;DHT22;31237;45.586;13.782;2022-07-10T12:25:40;28.60;35.50
45491;DHT22;31237;45.586;13.782;2022-07-10T12:28:06;28.50;36.10
45491;DHT22;31237;45.586;13.782;2022-07-10T12:35:56;28.10;36.80
45491;DHT22;31237;45.586;13.782;2022-07-10T12:38:24;28.00;37.20
45491;DHT22;31237;45.586;13.782;2022-07-10T12:40:51;27.90;37.50
45491;DHT22;31237;45.586;13.782;2022-07-10T12:43:30;27.80;37.70
45491;DHT22;31237;45.586;13.782;2022-07-10T12:46:28;27.80;38.10
45491;DHT22;31237;45.586;13.782;2022-07-10T12:49:07;27.80;38.90
45491;DHT22;31237;45.586;13.782;2022-07-10T12:51:45;27.70;39.20
45491;DHT22;31237;45.586;13.782;2022-07-10T12:54:33;27.70;39.90
45491;DHT22;31237;45.586;13.782;2022-07-10T12:56:59;27.60;40.60
45491;DHT22;31237;45.586;13.782;2022-07-10T12:59:35;27.50;40.60
45491;DHT22;31237;45.586;13.782;2022-07-10T13:02:18;27.50;40.90
45491;DHT22;31237;45.586;13.782;2022-07-10T13:04:55;27.40;40.70
45491;DHT22;31237;45.586;13.782;2022-07-10T13:07:29;27.40;41.40
45491;DHT22;31237;45.586;13.782;2022-07-10T13:09:55;27.30;41.70
45491;DHT22;31237;45.586;13.782;2022-07-10T13:12:21;27.30;41.80
45491;DHT22;31237;45.586;13.782;2022-07-10T13:14:46;27.30;42.00
45491;DHT22;31237;45.586;13.782;2022-07-10T13:17:12;27.30;41.60
45491;DHT22;31237;45.586;13.782;2022-07-10T13:19:38;27.40;41.50
45491;DHT22;31237;45.586;13.782;2022-07-10T13:22:04;27.40;41.80
45491;DHT22;31237;45.586;13.782;2022-07-10T13:24:30;27.40;41.40
45491;DHT22;31237;45.586;13.782;2022-07-10T13:26:55;27.30;41.60
45491;DHT22;31237;45.586;13.782;2022-07-10T13:29:22;27.40;42.10
45491;DHT22;31237;45.586;13.782;2022-07-10T13:31:48;27.40;42.10
45491;DHT22;31237;45.586;13.782;2022-07-10T13:34:14;27.50;42.00
45491;DHT22;31237;45.586;13.782;2022-07-10T13:36:39;27.60;41.80
45491;DHT22;31237;45.586;13.782;2022-07-10T13:39:05;27.70;41.30
45491;DHT22;31237;45.586;13.782;2022-07-10T13:41:31;27.70;40.70
45491;DHT22;31237;45.586;13.782;2022-07-10T13:43:57;27.70;40.00
45491;DHT22;31237;45.586;13.782;2022-07-10T13:46:22;27.80;39.80
45491;DHT22;31237;45.586;13.782;2022-07-10T13:48:48;27.90;39.70
45491;DHT22;31237;45.586;13.782;2022-07-10T13:51:14;28.00;39.70
45491;DHT22;31237;45.586;13.782;2022-07-10T13:53:40;28.00;39.50
45491;DHT22;31237;45.586;13.782;2022-07-10T13:56:07;28.10;39.50
45491;DHT22;31237;45.586;13.782;2022-07-10T13:58:34;28.20;39.00
45491;DHT22;31237;45.586;13.782;2022-07-10T14:01:00;28.20;39.00
45491;DHT22;31237;45.586;13.782;2022-07-10T14:03:26;28.10;39.30
45491;DHT22;31237;45.586;13.782;2022-07-10T14:05:52;28.10;39.50
45491;DHT22;31237;45.586;13.782;2022-07-10T14:08:20;28.10;39.50
45491;DHT22;31237;45.586;13.782;2022-07-10T14:10:45;28.00;39.80
45491;DHT22;31237;45.586;13.782;2022-07-10T14:13:12;28.00;39.70
45491;DHT22;31237;45.586;13.782;2022-07-10T14:15:38;27.90;39.90
45491;DHT22;31237;45.586;13.782;2022-07-10T14:18:04;27.90;39.70
45491;DHT22;31237;45.586;13.782;2022-07-10T14:20:31;28.00;40.30
45491;DHT22;31237;45.586;13.782;2022-07-10T14:23:17;28.00;40.30
45491;DHT22;31237;45.586;13.782;2022-07-10T14:25:43;28.00;39.60
45491;DHT22;31237;45.586;13.782;2022-07-10T14:28:08;27.90;39.70
45491;DHT22;31237;45.586;13.782;2022-07-10T14:30:34;27.80;39.60
45491;DHT22;31237;45.586;13.782;2022-07-10T14:33:00;27.70;39.60
45491;DHT22;31237;45.586;13.782;2022-07-10T14:35:25;27.70;40.00
45491;DHT22;31237;45.586;13.782;2022-07-10T14:37:51;27.70;40.20
45491;DHT22;31237;45.586;13.782;2022-07-10T14:40:17;27.80;40.80
45491;DHT22;31237;45.586;13.782;2022-07-10T14:42:42;27.70;40.90
45491;DHT22;31237;45.586;13.782;2022-07-10T14:45:09;27.60;41.20
45491;DHT22;31237;45.586;13.782;2022-07-10T14:47:34;27.50;41.30
45491;DHT22;31237;45.586;13.782;2022-07-10T14:50:00;27.50;41.70
45491;DHT22;31237;45.586;13.782;2022-07-10T14:52:26;27.40;42.30
45491;DHT22;31237;45.586;13.782;2022-07-10T14:54:54;27.30;42.60
45491;DHT22;31237;45.586;13.782;2022-07-10T14:57:20;27.30;43.10
45491;DHT22;31237;45.586;13.782;2022-07-10T14:59:46;27.20;43.50
45491;DHT22;31237;45.586;13.782;2022-07-10T15:02:11;27.10;44.10
45491;DHT22;31237;45.586;13.782;2022-07-10T15:04:37;27.00;44.40
45491;DHT22;31237;45.586;13.782;2022-07-10T15:07:03;27.00;44.70
45491;DHT22;31237;45.586;13.782;2022-07-10T15:09:29;26.90;44.90
45491;DHT22;31237;45.586;13.782;2022-07-10T15:11:56;26.90;45.30
45491;DHT22;31237;45.586;13.782;2022-07-10T15:14:21;26.90;45.70
45491;DHT22;31237;45.586;13.782;2022-07-10T15:16:47;26.90;46.20
45491;DHT22;31237;45.586;13.782;2022-07-10T15:19:13;26.90;46.30
45491;DHT22;31237;45.586;13.782;2022-07-10T15:21:39;26.90;46.40
45491;DHT22;31237;45.586;13.782;2022-07-10T15:24:05;26.90;46.20
45491;DHT22;31237;45.586;13.782;2022-07-10T15:26:31;26.90;46.30
45491;DHT22;31237;45.586;13.782;2022-07-10T15:28:56;26.90;46.80
45491;DHT22;31237;45.586;13.782;2022-07-10T15:31:24;27.00;47.20
45491;DHT22;31237;45.586;13.782;2022-07-10T15:33:50;27.00;47.00
45491;DHT22;31237;45.586;13.782;2022-07-10T15:36:16;27.00;47.20
45491;DHT22;31237;45.586;13.782;2022-07-10T15:38:41;27.00;47.10
45491;DHT22;31237;45.586;13.782;2022-07-10T15:41:07;27.10;47.60
45491;DHT22;31237;45.586;13.782;2022-07-10T15:43:33;27.10;48.40